Time;durP1;ratioP1;P1;durP2;ratioP2;P2;SDS_P1;SDS_P2;PMS_P1;PMS_P2;Temp;Humidity;BMP_temperature;BMP_pressure;BME280_temperature;BME280_humidity;BME280_pressure;Samples;Min_cycle;Max_cycle;Signal;HPM_P1;HPM_P2
2023/05/28 00:01:39;;;;;;;17.92;5.88;;;11.00;99.90;;;;;;4996371;28;20046;-68
2023/05/28 00:04:05;;;;;;;19.08;6.30;;;;;;;;;;5016195;28;20038;-68
2023/05/28 00:06:31;;;;;;;21.00;6.65;;;;;;;;;;4999041;28;20517;-68
2023/05/28 00:08:57;;;;;;;22.27;6.93;;;10.90;99.90;;;;;;5018276;28;20061;-68
2023/05/28 00:11:23;;;;;;;21.75;7.18;;;10.90;99.90;;;;;;5019533;28;20455;-68
2023/05/28 00:13:49;;;;;;;18.20;6.82;;;;;;;;;;4994275;28;20501;-68
2023/05/28 00:16:15;;;;;;;18.23;5.97;;;;;;;;;;5000337;28;20074;-68
2023/05/28 00:18:41;;;;;;;20.15;6.63;;;11.10;99.90;;;;;;4997103;28;20038;-68
2023/05/28 00:21:07;;;;;;;18.23;6.70;;;;;;;;;;5017467;28;20408;-68
2023/05/28 00:23:32;;;;;;;19.70;6.63;;;11.00;99.90;;;;;;4990902;28;20038;-68
2023/05/28 00:25:58;;;;;;;18.65;6.38;;;11.20;99.90;;;;;;4997140;28;20783;-68
2023/05/28 00:28:24;;;;;;;21.42;6.32;;;;;;;;;;5001707;28;20404;-68
2023/05/28 00:30:49;;;;;;;17.33;6.43;;;11.10;99.90;;;;;;4995848;28;20046;-68
2023/05/28 00:33:15;;;;;;;26.63;7.53;;;;;;;;;;4993652;28;20046;-68
2023/05/28 00:35:41;;;;;;;20.00;6.97;;;;;;;;;;4991795;28;20057;-68
2023/05/28 00:38:07;;;;;;;14.95;6.70;;;;;;;;;;4996364;28;20074;-68
2023/05/28 00:40:33;;;;;;;19.10;7.10;;;11.30;99.90;;;;;;4989431;28;20038;-68
2023/05/28 00:42:59;;;;;;;14.88;5.28;;;;;;;;;;5002715;28;20069;-68
2023/05/28 00:45:24;;;;;;;16.13;6.18;;;11.30;99.90;;;;;;4999253;28;20412;-68
2023/05/28 00:47:51;;;;;;;15.05;5.45;;;;;;;;;;4997320;28;20042;-68
2023/05/28 00:50:17;;;;;;;16.42;6.00;;;;;;;;;;4990873;28;20567;-68
2023/05/28 00:52:44;;;;;;;11.45;5.55;;;;;;;;;;5009807;28;20381;-68
2023/05/28 00:55:14;;;;;;;16.67;6.18;;;;;;;;;;5011231;28;20061;-68
2023/05/28 00:57:41;;;;;;;21.52;6.85;;;;;;;;;;5016348;28;20042;-68
2023/05/28 01:00:08;;;;;;;16.90;7.70;;;11.10;99.90;;;;;;5003635;28;20053;-68
2023/05/28 01:02:34;;;;;;;14.35;5.90;;;11.30;99.90;;;;;;5021026;28;20041;-68
2023/05/28 01:05:00;;;;;;;19.75;6.57;;;;;;;;;;5006416;28;20430;-68
2023/05/28 01:07:26;;;;;;;14.95;6.20;;;11.30;99.90;;;;;;5014214;28;20049;-68
2023/05/28 01:09:52;;;;;;;20.05;6.13;;;;;;;;;;5009681;28;20037;-68
2023/05/28 01:12:18;;;;;;;22.42;6.45;;;;;;;;;;5018621;28;20045;-68
2023/05/28 01:14:44;;;;;;;17.42;6.13;;;11.30;99.90;;;;;;5011922;28;20038;-68
2023/05/28 01:17:10;;;;;;;16.85;6.22;;;11.40;99.90;;;;;;5002734;28;20049;-68
2023/05/28 01:19:36;;;;;;;18.25;6.45;;;;;;;;;;5003113;28;20087;-68
2023/05/28 01:22:04;;;;;;;19.70;5.90;;;11.20;99.90;;;;;;4999212;28;20073;-68
2023/05/28 01:24:32;;;;;;;17.65;5.97;;;;;;;;;;5019861;28;20400;-68
2023/05/28 01:26:58;;;;;;;16.02;6.72;;;;;;;;;;5012836;28;20041;-68
2023/05/28 01:29:24;;;;;;;16.73;6.95;;;11.20;99.90;;;;;;4991709;28;20081;-68
2023/05/28 01:31:50;;;;;;;16.67;6.05;;;;;;;;;;5010246;28;20057;-68
2023/05/28 01:34:16;;;;;;;15.20;6.13;;;;;;;;;;5016165;28;20678;-68
2023/05/28 01:36:48;;;;;;;16.60;5.78;;;11.30;99.90;;;;;;5017545;28;20055;-68
2023/05/28 01:39:15;;;;;;;17.33;7.25;;;;;;;;;;4994231;28;20439;-68
2023/05/28 01:41:42;;;;;;;18.02;5.93;;;11.20;99.90;;;;;;5014834;28;20053;-68
2023/05/28 01:44:08;;;;;;;12.82;6.40;;;;;;;;;;5016823;28;20080;-68
2023/05/28 01:46:34;;;;;;;14.73;5.80;;;11.20;99.90;;;;;;5017172;28;20033;-68
2023/05/28 01:49:00;;;;;;;18.67;6.20;;;11.30;99.90;;;;;;5013554;28;20475;-68
2023/05/28 01:51:29;;;;;;;16.05;6.15;;;11.20;99.90;;;;;;5012244;28;20535;-68
2023/05/28 01:53:55;;;;;;;17.25;5.72;;;11.30;99.90;;;;;;4996103;28;20678;-68
2023/05/28 01:56:21;;;;;;;14.65;5.97;;;;;;;;;;5012770;28;20038;-68
2023/05/28 01:58:47;;;;;;;19.98;6.20;;;;;;;;;;5018537;28;20045;-68
2023/05/28 02:01:32;;;;;;;18.48;5.72;;;11.30;99.90;;;;;;5023872;28;20140;-69
2023/05/28 02:03:59;;;;;;;15.65;5.65;;;;;;;;;;5018689;28;20049;-68
2023/05/28 02:06:26;;;;;;;12.90;5.45;;;;;;;;;;5012246;28;20519;-68
2023/05/28 02:08:52;;;;;;;15.07;5.93;;;;;;;;;;5019673;28;20044;-68
2023/05/28 02:11:18;;;;;;;14.57;5.90;;;;;;;;;;5002603;28;20037;-69
2023/05/28 02:13:44;;;;;;;13.75;5.95;;;;;;;;;;5017804;28;20546;-68
2023/05/28 02:16:10;;;;;;;15.65;6.35;;;11.30;99.90;;;;;;4996974;28;20050;-68
2023/05/28 02:18:37;;;;;;;22.17;7.15;;;11.30;99.90;;;;;;4997639;28;20053;-68
2023/05/28 02:21:03;;;;;;;15.88;6.35;;;;;;;;;;5009880;28;20073;-68
2023/05/28 02:23:29;;;;;;;16.77;7.00;;;;;;;;;;5008672;28;20048;-68
2023/05/28 02:25:55;;;;;;;17.33;6.13;;;11.40;99.90;;;;;;4999208;28;20038;-68
2023/05/28 02:28:21;;;;;;;19.98;6.97;;;;;;;;;;5017107;28;20060;-68
2023/05/28 02:30:47;;;;;;;19.92;6.40;;;;;;;;;;5006219;28;20076;-68
2023/05/28 02:33:13;;;;;;;15.60;5.75;;;;;;;;;;5024947;28;20056;-68
2023/05/28 02:35:39;;;;;;;17.42;6.70;;;;;;;;;;5019451;28;20564;-68
2023/05/28 02:38:05;;;;;;;20.73;6.63;;;;;;;;;;5006798;28;20129;-68
2023/05/28 02:40:32;;;;;;;18.85;6.40;;;;;;;;;;5005896;28;20073;-68
2023/05/28 02:42:57;;;;;;;16.90;6.63;;;;;;;;;;4992055;28;20049;-68
2023/05/28 02:45:23;;;;;;;20.02;6.95;;;;;;;;;;5021490;28;20045;-68
2023/05/28 02:47:49;;;;;;;19.83;7.15;;;;;;;;;;5016963;28;20048;-68
2023/05/28 02:50:15;;;;;;;18.38;7.35;;;11.00;99.90;;;;;;4988526;28;20084;-68
2023/05/28 02:52:40;;;;;;;18.42;6.38;;;11.10;99.90;;;;;;5004381;28;20563;-68
2023/05/28 02:55:07;;;;;;;15.45;6.10;;;11.20;99.90;;;;;;4993209;28;20077;-68
2023/05/28 02:57:33;;;;;;;17.88;6.93;;;;;;;;;;5007828;28;20492;-68
2023/05/28 02:59:59;;;;;;;23.40;7.00;;;;;;;;;;4988906;28;20144;-68
2023/05/28 03:02:25;;;;;;;18.92;6.88;;;;;;;;;;4992041;28;20068;-68
2023/05/28 03:04:52;;;;;;;13.80;6.10;;;11.20;99.90;;;;;;5017687;28;20387;-68
2023/05/28 03:07:18;;;;;;;16.25;6.60;;;;;;;;;;5018943;28;20068;-68
2023/05/28 03:09:44;;;;;;;15.30;6.30;;;;;;;;;;5013361;28;20037;-68
2023/05/28 03:12:10;;;;;;;18.30;5.95;;;;;;;;;;5016704;28;20131;-68
2023/05/28 03:14:36;;;;;;;18.08;6.18;;;11.30;99.90;;;;;;5016648;28;20088;-68
2023/05/28 03:17:02;;;;;;;19.02;6.32;;;;;;;;;;5017779;28;20084;-68
2023/05/28 03:19:28;;;;;;;17.75;6.75;;;;;;;;;;5019281;28;20048;-68
2023/05/28 03:21:54;;;;;;;14.50;5.75;;;;;;;;;;5015859;28;20396;-68
2023/05/28 03:24:20;;;;;;;18.73;7.07;;;;;;;;;;5017778;28;20045;-68
2023/05/28 03:26:45;;;;;;;18.20;6.75;;;11.20;99.90;;;;;;5013850;28;20037;-68
2023/05/28 03:29:11;;;;;;;19.48;7.40;;;11.10;99.90;;;;;;4992681;28;20077;-68
2023/05/28 03:31:47;;;;;;;19.70;6.70;;;10.90;99.90;;;;;;5004906;28;20049;-68
2023/05/28 03:34:13;;;;;;;22.52;7.97;;;;;;;;;;4993662;28;20124;-68
2023/05/28 03:36:42;;;;;;;15.48;6.53;;;;;;;;;;5014458;28;20052;-68
2023/05/28 03:39:11;;;;;;;11.90;6.63;;;;;;;;;;5008838;28;20041;-68
2023/05/28 03:41:37;;;;;;;15.85;6.47;;;10.90;99.90;;;;;;4996362;28;20508;-68
2023/05/28 03:44:03;;;;;;;14.00;7.10;;;10.80;99.90;;;;;;5016015;28;20068;-68
2023/05/28 03:46:29;;;;;;;17.23;8.50;;;;;;;;;;5020451;28;20056;-68
2023/05/28 03:48:55;;;;;;;21.10;7.05;;;10.80;99.90;;;;;;5016096;28;20037;-68
2023/05/28 03:51:21;;;;;;;20.45;7.63;;;;;;;;;;5013742;28;20098;-68
2023/05/28 03:53:47;;;;;;;13.70;7.22;;;10.80;99.90;;;;;;5021777;28;20033;-68
2023/05/28 03:56:13;;;;;;;14.45;7.28;;;;;;;;;;5018484;28;20509;-68
2023/05/28 03:58:39;;;;;;;17.23;7.57;;;;;;;;;;4993456;28;20527;-68
2023/05/28 04:01:04;;;;;;;17.95;7.30;;;10.50;99.90;;;;;;5011751;28;20133;-68
2023/05/28 04:03:30;;;;;;;12.05;6.93;;;;;;;;;;5003976;28;20051;-68
2023/05/28 04:05:56;;;;;;;18.38;7.20;;;;;;;;;;5006727;28;20473;-68
2023/05/28 04:08:22;;;;;;;18.13;6.72;;;10.70;99.90;;;;;;5015231;28;20037;-68
2023/05/28 04:10:48;;;;;;;19.75;7.07;;;;;;;;;;4998934;28;20096;-68
2023/05/28 04:13:14;;;;;;;18.73;7.68;;;;;;;;;;5026273;28;20045;-68
2023/05/28 04:15:40;;;;;;;17.27;7.88;;;;;;;;;;5005381;28;20077;-68
2023/05/28 04:18:06;;;;;;;17.33;6.93;;;;;;;;;;5018869;28;20779;-68
2023/05/28 04:20:32;;;;;;;14.85;7.45;;;10.90;99.90;;;;;;5010403;28;20046;-68
2023/05/28 04:22:58;;;;;;;14.07;7.00;;;;;;;;;;5023305;28;20051;-68
2023/05/28 04:25:24;;;;;;;17.75;6.80;;;;;;;;;;5019398;28;20041;-68
2023/05/28 04:27:50;;;;;;;15.38;6.78;;;;;;;;;;4996685;28;20049;-69
2023/05/28 04:30:16;;;;;;;13.80;6.80;;;;;;;;;;5003499;28;20978;-69
2023/05/28 04:32:42;;;;;;;18.80;7.53;;;;;;;;;;5019114;28;20061;-65
2023/05/28 04:35:08;;;;;;;19.63;7.30;;;;;;;;;;4997484;28;20045;-66
2023/05/28 04:37:36;;;;;;;15.73;7.07;;;;;;;;;;5015997;28;20395;-66
2023/05/28 04:40:04;;;;;;;21.13;7.20;;;11.20;99.90;;;;;;5000181;28;20454;-66
2023/05/28 04:42:30;;;;;;;22.23;8.00;;;;;;;;;;5019406;28;20048;-65
2023/05/28 04:44:58;;;;;;;15.63;5.90;;;;;;;;;;5017328;28;20095;-65
2023/05/28 04:47:24;;;;;;;15.82;6.90;;;;;;;;;;5020994;28;20468;-65
2023/05/28 04:49:50;;;;;;;17.20;6.85;;;;;;;;;;5010280;28;20052;-66
2023/05/28 04:52:16;;;;;;;20.15;7.35;;;;;;;;;;5014886;28;20066;-66
2023/05/28 04:54:48;;;;;;;16.38;7.10;;;11.70;99.90;;;;;;4996770;28;20045;-66
2023/05/28 04:57:14;;;;;;;16.27;7.70;;;12.00;99.90;;;;;;5000897;28;20069;-66
2023/05/28 04:59:40;;;;;;;18.10;6.90;;;;;;;;;;4998395;28;20152;-66
2023/05/28 05:02:06;;;;;;;16.33;7.88;;;;;;;;;;5018084;28;20049;-67
2023/05/28 05:04:32;;;;;;;15.02;6.28;;;;;;;;;;5015737;28;20091;-67
2023/05/28 05:07:23;;;;;;;15.27;6.35;;;13.60;99.90;;;;;;5003357;28;20042;-72
2023/05/28 05:09:50;;;;;;;15.40;6.13;;;;;;;;;;5016845;28;20046;-67
2023/05/28 05:12:15;;;;;;;12.60;5.05;;;14.50;99.90;;;;;;5021291;28;20451;-67
2023/05/28 05:14:41;;;;;;;11.10;4.40;;;;;;;;;;5021284;28;20037;-67
2023/05/28 05:17:08;;;;;;;17.50;5.32;;;;;;;;;;5014507;28;20081;-67
2023/05/28 05:19:35;;;;;;;12.45;5.30;;;;;;;;;;5011746;28;20056;-67
2023/05/28 05:22:01;;;;;;;11.27;4.55;;;15.40;99.90;;;;;;5019192;28;20077;-68
2023/05/28 05:24:26;;;;;;;15.43;5.40;;;15.30;99.90;;;;;;5023752;28;20071;-67
2023/05/28 05:26:52;;;;;;;18.02;5.40;;;;;;;;;;5016056;28;20480;-66
2023/05/28 05:29:18;;;;;;;11.10;3.72;;;;;;;;;;5002454;28;20544;-67
2023/05/28 05:32:02;;;;;;;12.32;5.35;;;15.20;99.90;;;;;;5022473;28;20048;-67
2023/05/28 05:34:28;;;;;;;10.57;4.78;;;;;;;;;;4989438;28;20052;-67
2023/05/28 05:36:54;;;;;;;13.48;5.75;;;14.80;99.90;;;;;;5020907;28;20435;-68
2023/05/28 05:39:20;;;;;;;14.85;6.28;;;;;;;;;;5013831;28;20049;-68
2023/05/28 05:41:48;;;;;;;15.05;5.22;;;14.90;99.90;;;;;;4998018;28;20822;-67
2023/05/28 05:44:14;;;;;;;12.35;4.43;;;14.90;99.90;;;;;;5017044;28;20656;-66
2023/05/28 05:46:40;;;;;;;14.27;5.00;;;;;;;;;;5014178;28;20041;-66
2023/05/28 05:49:05;;;;;;;9.88;4.40;;;14.90;99.90;;;;;;5021461;28;20802;-67
2023/05/28 05:51:32;;;;;;;14.23;5.30;;;;;;;;;;5015105;28;20068;-67
2023/05/28 05:53:58;;;;;;;14.85;5.28;;;;;;;;;;5013793;28;20053;-67
2023/05/28 05:56:25;;;;;;;12.40;4.65;;;;;;;;;;5020348;28;20080;-67
2023/05/28 05:58:51;;;;;;;11.15;4.88;;;15.20;99.90;;;;;;5019468;28;20049;-67
2023/05/28 06:01:16;;;;;;;18.65;4.82;;;15.70;99.90;;;;;;5019294;28;20068;-67
2023/05/28 06:04:00;;;;;;;13.45;5.65;;;15.70;99.90;;;;;;5017004;28;20045;-69
2023/05/28 06:06:36;;;;;;;11.75;5.10;;;16.60;99.90;;;;;;4998939;28;20038;-69
2023/05/28 06:09:29;;;;;;;11.38;4.88;;;18.40;99.90;;;;;;4987529;28;20517;-70
2023/05/28 06:11:55;;;;;;;13.30;4.72;;;18.70;99.90;;;;;;4991047;28;20435;-70
2023/05/28 06:14:21;;;;;;;9.23;3.83;;;21.80;99.90;;;;;;5018359;28;20045;-69
2023/05/28 06:16:47;;;;;;;11.73;4.05;;;20.40;99.90;;;;;;4990048;28;20049;-67
2023/05/28 06:19:13;;;;;;;13.05;4.40;;;22.80;99.90;;;;;;4988424;28;20064;-68
2023/05/28 06:21:38;;;;;;;12.15;4.00;;;21.40;99.90;;;;;;5010207;28;20049;-68
2023/05/28 06:24:04;;;;;;;9.95;4.40;;;22.10;99.90;;;;;;5006545;28;20046;-71
2023/05/28 06:26:29;;;;;;;9.48;3.70;;;22.60;99.90;;;;;;5015096;28;20053;-67
2023/05/28 06:28:55;;;;;;;9.55;3.78;;;23.00;99.90;;;;;;4989033;28;20068;-66
2023/05/28 06:31:20;;;;;;;10.75;3.83;;;23.40;99.90;;;;;;5010259;28;20451;-68
2023/05/28 06:33:49;;;;;;;11.07;4.40;;;23.60;99.90;;;;;;5012344;28;20041;-67
2023/05/28 06:36:15;;;;;;;12.02;4.13;;;25.80;99.90;;;;;;5021165;28;20041;-69
2023/05/28 06:38:41;;;;;;;13.20;4.07;;;23.40;99.90;;;;;;4989143;28;20046;-70
2023/05/28 06:41:26;;;;;;;10.95;3.45;;;22.90;99.90;;;;;;4988081;28;20053;-71
2023/05/28 06:43:51;;;;;;;10.25;4.15;;;20.70;99.90;;;;;;4989380;28;20041;-69
2023/05/28 06:46:21;;;;;;;9.38;4.20;;;21.50;99.90;;;;;;5004728;28;20042;-70
2023/05/28 06:48:46;;;;;;;11.15;4.40;;;19.50;99.90;;;;;;4985539;28;20499;-69
2023/05/28 06:51:12;;;;;;;11.30;4.45;;;20.50;99.90;;;;;;5013087;28;20061;-68
2023/05/28 06:53:38;;;;;;;12.02;4.90;;;20.30;99.90;;;;;;5002402;28;20076;-68
2023/05/28 06:56:05;;;;;;;11.43;5.10;;;19.10;99.90;;;;;;5012497;28;20045;-68
2023/05/28 06:58:31;;;;;;;11.57;4.28;;;18.90;99.90;;;;;;4998542;28;20041;-68
2023/05/28 07:00:58;;;;;;;14.95;4.78;;;18.80;99.90;;;;;;5013414;28;20057;-68
2023/05/28 07:03:24;;;;;;;10.38;4.30;;;;;;;;;;5014537;28;20096;-68
2023/05/28 07:05:50;;;;;;;11.32;4.53;;;;;;;;;;5016049;28;20148;-68
2023/05/28 07:08:15;;;;;;;13.73;5.55;;;18.50;99.90;;;;;;5011297;28;20413;-69
2023/05/28 07:10:41;;;;;;;11.70;5.15;;;;;;;;;;4993830;28;20045;-69
2023/05/28 07:13:07;;;;;;;10.27;5.28;;;18.40;99.90;;;;;;5019770;28;20508;-67
2023/05/28 07:15:33;;;;;;;10.25;4.70;;;;;;;;;;5018504;28;20073;-66
2023/05/28 07:18:01;;;;;;;10.60;4.45;;;;;;;;;;5015694;28;20034;-67
2023/05/28 07:20:27;;;;;;;12.50;4.90;;;;;;;;;;5021898;28;20746;-67
2023/05/28 07:22:53;;;;;;;12.93;5.25;;;;;;;;;;5017504;28;20144;-67
2023/05/28 07:25:19;;;;;;;12.55;5.30;;;;;;;;;;4997864;28;20156;-66
2023/05/28 07:27:45;;;;;;;13.75;5.63;;;;;;;;;;5023027;28;20450;-66
2023/05/28 07:30:11;;;;;;;14.75;6.28;;;18.10;99.90;;;;;;4994899;28;20076;-69
2023/05/28 07:32:37;;;;;;;13.95;5.13;;;;;;;;;;5022052;28;20041;-71
2023/05/28 07:35:03;;;;;;;10.50;4.78;;;17.90;99.90;;;;;;5005231;28;20314;-70
2023/05/28 07:37:29;;;;;;;9.68;4.65;;;18.00;99.90;;;;;;5003555;28;20048;-68
2023/05/28 07:39:55;;;;;;;12.20;4.75;;;17.90;99.90;;;;;;5008834;28;20041;-67
2023/05/28 07:42:21;;;;;;;12.27;5.15;;;;;;;;;;5000430;28;20073;-67
2023/05/28 07:44:46;;;;;;;11.88;5.15;;;17.90;99.90;;;;;;5020340;28;20556;-68
2023/05/28 07:47:13;;;;;;;12.25;5.50;;;17.80;99.90;;;;;;5020810;28;20050;-67
2023/05/28 07:49:38;;;;;;;14.35;5.85;;;17.90;99.90;;;;;;5019142;28;20044;-68
2023/05/28 07:52:04;;;;;;;10.30;5.03;;;18.00;99.90;;;;;;5022058;28;20053;-67
2023/05/28 07:54:30;;;;;;;13.15;5.90;;;;;;;;;;5021862;28;20045;-67
2023/05/28 07:56:56;;;;;;;14.63;5.57;;;;;;;;;;5000539;28;20049;-66
2023/05/28 07:59:22;;;;;;;11.57;4.65;;;;;;;;;;5021333;28;20053;-67
2023/05/28 08:01:48;;;;;;;13.93;6.15;;;;;;;;;;5018412;28;20068;-70
2023/05/28 08:04:14;;;;;;;13.13;5.50;;;17.80;99.90;;;;;;5014435;28;20499;-67
2023/05/28 08:06:40;;;;;;;12.02;5.00;;;;;;;;;;5016871;28;20046;-67
2023/05/28 08:09:06;;;;;;;11.63;5.78;;;;;;;;;;5015853;28;20049;-68
2023/05/28 08:11:32;;;;;;;17.17;5.15;;;17.80;99.90;;;;;;5010662;28;20573;-69
2023/05/28 08:13:58;;;;;;;14.13;5.32;;;;;;;;;;4998726;28;20081;-67
2023/05/28 08:16:23;;;;;;;12.45;6.20;;;17.90;99.90;;;;;;4994795;28;20399;-67
2023/05/28 08:18:49;;;;;;;20.05;6.78;;;17.90;99.90;;;;;;5021663;28;20101;-66
2023/05/28 08:21:15;;;;;;;15.50;5.32;;;18.00;99.90;;;;;;5016259;28;20046;-70
2023/05/28 08:23:40;;;;;;;13.75;5.97;;;17.90;99.90;;;;;;5023111;28;20048;-70
2023/05/28 08:26:06;;;;;;;11.18;5.35;;;;;;;;;;5025464;28;20118;-70
2023/05/28 08:28:32;;;;;;;14.85;5.63;;;18.00;99.90;;;;;;5011126;28;20064;-70
2023/05/28 08:30:57;;;;;;;11.50;5.32;;;18.20;99.90;;;;;;5011471;28;20048;-67
2023/05/28 08:33:23;;;;;;;12.77;4.70;;;18.30;99.90;;;;;;5018131;28;20047;-66
2023/05/28 08:35:49;;;;;;;10.38;5.00;;;17.90;99.90;;;;;;5004700;28;20479;-67
2023/05/28 08:38:15;;;;;;;16.55;5.55;;;;;;;;;;5018702;28;20049;-66
2023/05/28 08:40:43;;;;;;;13.85;5.43;;;18.10;99.90;;;;;;4991078;28;20050;-66
2023/05/28 08:43:09;;;;;;;13.27;5.35;;;;;;;;;;5003630;28;20042;-69
2023/05/28 08:45:37;;;;;;;12.43;4.82;;;18.30;99.90;;;;;;5019655;28;20496;-67
2023/05/28 08:48:05;;;;;;;10.93;4.88;;;18.20;99.90;;;;;;5014079;28;20042;-68
2023/05/28 08:50:31;;;;;;;10.88;5.40;;;18.30;99.90;;;;;;5021482;28;20582;-67
2023/05/28 08:53:29;;;;;;;12.27;5.53;;;18.30;99.90;;;;;;5006300;28;20053;-67
2023/05/28 08:55:55;;;;;;;13.20;5.10;;;18.50;99.90;;;;;;4998822;28;20136;-67
2023/05/28 08:58:21;;;;;;;9.43;4.95;;;;;;;;;;5015339;28;20049;-68
2023/05/28 09:00:47;;;;;;;10.23;5.05;;;18.50;99.90;;;;;;5016426;28;21395;-67
2023/05/28 09:03:13;;;;;;;11.50;5.45;;;;;;;;;;5001676;28;20041;-67
2023/05/28 09:05:39;;;;;;;12.05;5.47;;;18.30;99.90;;;;;;5019735;28;20042;-67
2023/05/28 09:08:09;;;;;;;11.05;5.10;;;18.40;99.90;;;;;;5014821;28;20099;-68
2023/05/28 09:10:40;;;;;;;10.27;5.40;;;18.40;99.90;;;;;;5008513;28;20049;-68
2023/05/28 09:13:06;;;;;;;13.00;5.78;;;18.50;99.90;;;;;;5018054;28;20049;-68
2023/05/28 09:15:37;;;;;;;7.80;4.70;;;18.40;99.90;;;;;;5006263;28;20073;-69
2023/05/28 09:18:05;;;;;;;10.75;4.72;;;18.50;99.90;;;;;;5017737;28;20065;-68
2023/05/28 09:20:31;;;;;;;16.10;4.43;;;;;;;;;;5009571;28;20104;-69
2023/05/28 09:23:06;;;;;;;11.82;5.13;;;18.70;99.90;;;;;;5018983;28;20052;-69
2023/05/28 09:25:36;;;;;;;9.52;4.50;;;18.80;99.90;;;;;;5013657;28;20088;-69
2023/05/28 09:28:25;;;;;;;10.55;4.63;;;18.80;99.90;;;;;;5021396;28;20092;-69
2023/05/28 09:30:51;;;;;;;9.93;4.97;;;18.90;99.90;;;;;;5019764;28;20508;-69
2023/05/28 09:33:18;;;;;;;8.73;4.70;;;18.90;99.90;;;;;;4995915;28;20478;-68
2023/05/28 09:35:44;;;;;;;12.48;4.85;;;;;;;;;;5017465;28;20053;-68
2023/05/28 09:38:13;;;;;;;8.68;4.07;;;19.10;99.90;;;;;;4990188;28;20068;-68
2023/05/28 09:40:39;;;;;;;10.95;4.22;;;19.10;99.90;;;;;;5001388;28;20133;-69
2023/05/28 09:43:06;;;;;;;10.85;4.95;;;19.20;99.90;;;;;;5021372;28;20052;-69
2023/05/28 09:45:33;;;;;;;9.63;4.28;;;19.30;99.90;;;;;;5009802;28;20044;-68
2023/05/28 09:47:59;;;;;;;12.82;4.22;;;19.40;99.90;;;;;;5009270;28;20910;-68
2023/05/28 09:50:24;;;;;;;7.85;3.72;;;19.40;99.90;;;;;;5014725;28;20129;-68
2023/05/28 09:52:54;;;;;;;11.48;4.28;;;19.40;99.90;;;;;;4991671;28;20050;-69
2023/05/28 09:55:24;;;;;;;8.45;4.22;;;19.40;99.90;;;;;;5012868;28;20406;-69
2023/05/28 09:58:04;;;;;;;9.50;4.20;;;19.50;99.90;;;;;;4997408;28;20415;-68
2023/05/28 10:00:33;;;;;;;10.13;4.07;;;19.50;99.90;;;;;;4996588;28;20064;-68
2023/05/28 10:03:23;;;;;;;15.52;4.63;;;19.50;99.90;;;;;;4992709;28;20443;-69
2023/05/28 10:05:52;;;;;;;6.75;4.15;;;19.50;99.90;;;;;;5005848;28;20037;-70
2023/05/28 10:08:20;;;;;;;8.38;3.95;;;19.60;99.90;;;;;;5005817;28;20060;-70
2023/05/28 10:10:51;;;;;;;9.95;4.47;;;19.70;99.90;;;;;;5016978;28;20053;-70
2023/05/28 10:13:17;;;;;;;7.75;4.32;;;19.80;99.90;;;;;;5012399;28;20045;-71
2023/05/28 10:15:45;;;;;;;9.68;4.38;;;19.80;99.90;;;;;;5011984;28;20042;-67
2023/05/28 10:18:14;;;;;;;10.13;4.35;;;20.10;99.90;;;;;;5012648;28;20080;-67
2023/05/28 10:20:40;;;;;;;9.20;4.55;;;19.80;99.90;;;;;;4989837;28;20042;-68
2023/05/28 10:23:07;;;;;;;10.30;4.05;;;19.90;99.90;;;;;;5021041;28;20066;-68
2023/05/28 10:25:33;;;;;;;11.68;4.53;;;20.10;99.90;;;;;;5022301;28;20065;-68
2023/05/28 10:28:03;;;;;;;9.95;3.95;;;21.30;99.90;;;;;;5013347;28;20042;-67
2023/05/28 10:30:36;;;;;;;8.95;4.40;;;20.00;99.90;;;;;;5008758;28;20056;-68
2023/05/28 10:33:15;;;;;;;13.23;4.47;;;21.70;99.90;;;;;;5020172;28;20063;-68
2023/05/28 10:35:56;;;;;;;12.00;4.38;;;20.10;99.90;;;;;;4996392;28;20049;-68
2023/05/28 10:38:22;;;;;;;8.35;4.05;;;20.20;99.90;;;;;;5009614;28;20589;-67
2023/05/28 10:40:51;;;;;;;9.10;4.80;;;20.10;99.90;;;;;;5007163;28;20128;-67
2023/05/28 10:43:46;;;;;;;11.68;5.45;;;21.70;99.90;;;;;;5015555;28;20097;-68
2023/05/28 10:46:15;;;;;;;10.23;4.78;;;20.20;99.90;;;;;;4978811;28;20045;-67
2023/05/28 10:49:02;;;;;;;9.18;4.38;;;20.20;99.90;;;;;;5010651;28;20075;-67
2023/05/28 10:52:00;;;;;;;11.05;4.25;;;17.80;99.90;;;;;;5011023;28;20096;-68
2023/05/28 10:54:37;;;;;;;10.40;4.75;;;20.40;99.90;;;;;;5014166;28;20090;-68
2023/05/28 10:57:17;;;;;;;8.57;4.85;;;20.40;99.90;;;;;;5017737;28;20056;-68
2023/05/28 10:59:51;;;;;;;8.80;4.95;;;20.50;99.90;;;;;;5008309;28;20427;-67
2023/05/28 11:02:25;;;;;;;7.95;4.65;;;20.70;99.90;;;;;;5014461;28;20092;-68
2023/05/28 11:05:00;;;;;;;10.13;5.28;;;20.50;99.90;;;;;;4998747;28;20038;-68
2023/05/28 11:07:35;;;;;;;11.30;5.25;;;20.60;99.90;;;;;;5012922;28;20041;-67
2023/05/28 11:10:02;;;;;;;12.00;5.07;;;20.60;99.90;;;;;;5011354;28;20042;-67
2023/05/28 11:12:30;;;;;;;7.65;4.82;;;21.00;99.90;;;;;;4996209;28;20482;-68
2023/05/28 11:14:56;;;;;;;8.20;4.18;;;20.50;99.90;;;;;;5019728;28;20042;-68
2023/05/28 11:17:22;;;;;;;10.18;5.03;;;20.20;99.90;;;;;;5012136;28;20052;-69
2023/05/28 11:19:51;;;;;;;7.43;4.78;;;21.80;99.90;;;;;;5020277;28;20837;-68
2023/05/28 11:22:18;;;;;;;10.77;5.63;;;22.00;99.90;;;;;;4999684;28;20137;-67
2023/05/28 11:24:55;;;;;;;7.32;4.45;;;20.40;99.90;;;;;;5023018;28;20522;-68
2023/05/28 11:27:22;;;;;;;9.93;4.35;;;20.50;99.90;;;;;;5000061;28;20699;-69
2023/05/28 11:29:49;;;;;;;7.25;4.95;;;20.60;99.90;;;;;;5010246;28;20037;-68
2023/05/28 11:32:17;;;;;;;9.95;4.45;;;20.70;99.90;;;;;;5016050;28;20443;-68
2023/05/28 11:34:42;;;;;;;10.77;5.20;;;20.50;99.90;;;;;;5010349;28;20067;-68
2023/05/28 11:39:36;;;;;;;8.90;4.63;;;20.50;99.90;;;;;;5018763;28;20534;-68
2023/05/28 11:42:01;;;;;;;8.60;4.13;;;21.30;99.90;;;;;;5009018;28;20046;-68
2023/05/28 11:44:27;;;;;;;7.70;4.10;;;20.80;99.90;;;;;;4995429;28;20063;-69
2023/05/28 11:46:54;;;;;;;5.82;4.25;;;20.90;99.90;;;;;;5003953;28;20567;-69
2023/05/28 11:49:21;;;;;;;7.22;4.32;;;20.60;99.90;;;;;;5000691;28;20073;-69
2023/05/28 11:51:46;;;;;;;7.80;3.95;;;20.80;99.90;;;;;;4994405;28;20038;-69
2023/05/28 11:54:13;;;;;;;10.30;4.38;;;20.40;99.90;;;;;;5002006;28;20542;-69
2023/05/28 11:56:38;;;;;;;8.98;2.90;;;22.10;99.90;;;;;;5003840;28;20041;-69
2023/05/28 11:59:04;;;;;;;7.38;3.60;;;20.50;99.90;;;;;;4989832;28;20045;-68
2023/05/28 12:01:34;;;;;;;8.40;3.25;;;20.80;99.90;;;;;;4989573;28;20081;-71
2023/05/28 12:04:06;;;;;;;5.25;2.50;;;20.70;99.90;;;;;;5004473;28;20041;-71
2023/05/28 12:06:53;;;;;;;6.80;2.70;;;20.90;99.90;;;;;;4998285;28;20096;-71
2023/05/28 12:09:19;;;;;;;4.90;2.35;;;20.80;99.90;;;;;;5006037;28;20045;-67
2023/05/28 12:12:01;;;;;;;6.55;2.13;;;20.80;99.90;;;;;;5003193;28;20045;-67
2023/05/28 12:14:26;;;;;;;8.25;2.10;;;20.80;99.90;;;;;;5008152;28;20055;-67
2023/05/28 12:19:32;;;;;;;5.97;2.08;;;20.70;99.90;;;;;;5624960;22;20865;-67
2023/05/28 12:21:57;;;;;;;7.60;2.17;;;20.70;99.90;;;;;;5004629;28;20138;-69
2023/05/28 12:24:27;;;;;;;5.88;1.70;;;20.70;99.90;;;;;;5002945;28;20038;-69
2023/05/28 12:26:52;;;;;;;6.47;2.33;;;20.80;99.90;;;;;;5006396;28;20046;-69
2023/05/28 12:29:18;;;;;;;7.13;2.70;;;20.90;99.90;;;;;;4993884;28;20068;-69
2023/05/28 12:31:43;;;;;;;10.98;2.58;;;20.70;99.90;;;;;;5005429;28;20069;-69
2023/05/28 12:37:38;;;;;;;5.45;2.00;;;21.30;99.90;;;;;;5082707;23;20107;-87
2023/05/28 12:40:06;;;;;;;8.70;2.53;;;19.10;99.90;;;;;;5027536;28;20033;-86
2023/05/28 12:42:34;;;;;;;8.32;2.38;;;21.40;99.90;;;;;;4984563;28;20042;-87
2023/05/28 12:48:30;;;;;;;7.15;2.22;;;21.00;99.90;;;;;;4923155;29;20042;-87
2023/05/28 12:50:55;;;;;;;9.60;3.08;;;22.60;99.90;;;;;;4918409;28;20038;-87
2023/05/28 12:53:21;;;;;;;6.75;2.80;;;20.40;99.90;;;;;;4993625;28;20052;-88
2023/05/28 12:55:46;;;;;;;12.07;2.70;;;22.30;99.90;;;;;;5006091;28;21305;-90
2023/05/28 12:58:12;;;;;;;11.38;3.00;;;21.00;99.90;;;;;;4986435;28;20402;-87
2023/05/28 13:00:37;;;;;;;9.55;2.70;;;20.20;99.90;;;;;;5022452;28;20048;-88
2023/05/28 13:03:03;;;;;;;10.88;3.25;;;22.90;99.90;;;;;;4989523;28;20037;-88
2023/05/28 13:05:32;;;;;;;10.77;2.90;;;20.70;99.90;;;;;;5003077;28;20048;-87
2023/05/28 13:08:01;;;;;;;9.07;2.65;;;20.60;99.90;;;;;;5004716;28;20037;-88
2023/05/28 13:10:27;;;;;;;19.02;3.80;;;22.50;99.90;;;;;;5002199;28;20068;-88
2023/05/28 13:12:53;;;;;;;9.75;3.17;;;21.20;99.90;;;;;;5006220;28;20075;-88
2023/05/28 13:15:19;;;;;;;9.27;3.60;;;21.40;99.90;;;;;;4988451;28;20825;-87
2023/05/28 13:17:45;;;;;;;9.80;3.25;;;22.90;99.90;;;;;;5006395;28;20041;-87
2023/05/28 13:20:10;;;;;;;8.63;2.83;;;20.80;99.90;;;;;;4985633;28;20109;-88
2023/05/28 13:22:36;;;;;;;7.35;3.88;;;21.40;99.90;;;;;;5009675;28;20100;-87
2023/05/28 13:25:03;;;;;;;10.30;3.70;;;19.80;99.90;;;;;;5003922;28;20034;-88
2023/05/28 13:27:29;;;;;;;14.02;3.47;;;20.90;99.90;;;;;;5007517;28;20037;-89
2023/05/28 13:29:54;;;;;;;13.52;3.90;;;22.20;99.90;;;;;;4998110;28;20534;-87
2023/05/28 13:32:20;;;;;;;10.90;3.65;;;21.60;99.90;;;;;;4985467;28;20881;-86